Sunday, December 17, 2017, 10:16 PM EST
Back to Local

KACK, Nantucket Memorial Airport

Location: Nantucket, MA, United States Lat: 41.25
Local Time: 10:16 PM EST ( 3:16 GMT) Lon: -70.067
Time Zone: US/Eastern Elev: 49 ft

Show me the last for .
Show Coded

Time T Td Feel RH Dir Speed Gust Alt SLP Vis Weather Sky Remarks
2017-12-17 21:53 29 10 25 44 340° 3 - 30.26 30.26 10 CLR None
2017-12-17 20:53 29 12 23 48 340° 6 - 30.28 30.27 10 CLR None
2017-12-17 19:53 27 13 20 54 320° 6 - 30.27 30.27 10 CLR None
2017-12-17 18:53 27 14 23 57 310° 3 - 30.27 30.27 10 CLR 6-hr Min Temp (7pm): 24.1°F
6-hr Max Temp (7pm): 28.9°F
2017-12-17 17:53 24 14 - 64 - Calm - 30.25 30.25 10 CLR None
2017-12-17 16:53 25 13 18 59 250° 6 - 30.24 30.24 10 CLR None
2017-12-17 15:53 27 13 20 54 270° 6 - 30.24 30.24 10 CLR None
2017-12-17 14:53 28 12 20 50 280° 8 - 30.21 30.21 10 CLR None
2017-12-17 13:53 29 12 21 48 300° 8 - 30.22 30.22 10 CLR None
2017-12-17 12:53 28 11 20 48 300° 8 - 30.23 30.23 10 CLR 6-hr Min Temp (1pm): 25.0°F
6-hr Max Temp (1pm): 28.9°F
2017-12-17 11:53 28 11 18 48 320° 12 - 30.24 30.24 10 CLR None
2017-12-17 10:53 28 11 18 48 320° 12 - 30.25 30.25 10 CLR None
2017-12-17 09:53 27 11 16 50 340° 14 - 30.26 30.25 10 CLR None
2017-12-17 08:53 27 13 16 54 320° 14 - 30.25 30.25 10 CLR None
2017-12-17 07:53 26 12 16 54 320° 12 - 30.25 30.24 10 CLR None
2017-12-17 06:53 25 13 13 59 320° 14 - 30.24 30.24 10 CLR 6-hr Min Temp (7am): 25.0°F
6-hr Max Temp (7am): 28.0°F
2017-12-17 05:53 25 14 16 62 300° 9 - 30.25 30.25 10 CLR None
2017-12-17 04:53 26 15 16 62 300° 12 - 30.22 30.21 10 CLR None
2017-12-17 03:53 26 15 16 62 310° 10 - 30.20 30.19 10 CLR None
2017-12-17 02:53 27 12 15 52 320° 16 - 30.19 30.19 10 CLR None
2017-12-17 01:53 27 13 15 54 330° 15 - 30.18 30.18 10 CLR None
2017-12-17 00:53 28 14 13 55 320° 15 26 30.16 30.16 10 CLR 6-hr Min Temp (1am): 28.0°F
6-hr Max Temp (1am): 34.0°F
2017-12-16 23:53 29 16 16 57 320° 18 - 30.15 30.14 10 CLR 24-hr Min Temp (12am): 25.0°F
24-hr Max Temp (12am): 35.1°F
2017-12-16 22:53 30 17 16 58 320° 20 26 30.14 30.14 10 CLR None

Support USWX by starting your Amazon purchase here.